sensor_id;sensor_type;location;lat;lon;timestamp;P1;durP1;ratioP1;P2;durP2;ratioP2
70305;SDS011;57714;51.698;5.344;2022-08-21T00:00:51;1.33;;;0.67;;
70305;SDS011;57714;51.698;5.344;2022-08-21T00:03:16;0.90;;;0.60;;
70305;SDS011;57714;51.698;5.344;2022-08-21T00:05:44;0.90;;;0.53;;
70305;SDS011;57714;51.698;5.344;2022-08-21T00:08:10;1.20;;;0.70;;
70305;SDS011;57714;51.698;5.344;2022-08-21T00:10:35;0.88;;;0.52;;
70305;SDS011;57714;51.698;5.344;2022-08-21T00:13:02;1.40;;;0.70;;
70305;SDS011;57714;51.698;5.344;2022-08-21T00:15:29;0.90;;;0.60;;
70305;SDS011;57714;51.698;5.344;2022-08-21T00:17:55;1.20;;;0.77;;
70305;SDS011;57714;51.698;5.344;2022-08-21T00:20:21;1.00;;;0.60;;
70305;SDS011;57714;51.698;5.344;2022-08-21T00:22:46;0.82;;;0.52;;
70305;SDS011;57714;51.698;5.344;2022-08-21T00:25:13;1.73;;;0.90;;
70305;SDS011;57714;51.698;5.344;2022-08-21T00:27:38;0.90;;;0.50;;
70305;SDS011;57714;51.698;5.344;2022-08-21T00:30:07;1.20;;;0.73;;
70305;SDS011;57714;51.698;5.344;2022-08-21T00:32:35;1.00;;;0.60;;
70305;SDS011;57714;51.698;5.344;2022-08-21T00:35:02;1.10;;;0.75;;
70305;SDS011;57714;51.698;5.344;2022-08-21T00:37:28;0.98;;;0.68;;
70305;SDS011;57714;51.698;5.344;2022-08-21T00:39:53;2.80;;;1.00;;
70305;SDS011;57714;51.698;5.344;2022-08-21T00:42:19;0.90;;;0.60;;
70305;SDS011;57714;51.698;5.344;2022-08-21T00:44:46;0.90;;;0.60;;
70305;SDS011;57714;51.698;5.344;2022-08-21T00:47:12;0.93;;;0.63;;
70305;SDS011;57714;51.698;5.344;2022-08-21T00:49:38;1.10;;;0.70;;
70305;SDS011;57714;51.698;5.344;2022-08-21T00:52:03;0.90;;;0.60;;
70305;SDS011;57714;51.698;5.344;2022-08-21T00:54:30;0.80;;;0.50;;
70305;SDS011;57714;51.698;5.344;2022-08-21T00:56:58;0.90;;;0.60;;
70305;SDS011;57714;51.698;5.344;2022-08-21T00:59:25;0.88;;;0.52;;
70305;SDS011;57714;51.698;5.344;2022-08-21T01:01:52;1.00;;;0.70;;
70305;SDS011;57714;51.698;5.344;2022-08-21T01:04:17;0.90;;;0.60;;
70305;SDS011;57714;51.698;5.344;2022-08-21T01:06:43;1.03;;;0.63;;
70305;SDS011;57714;51.698;5.344;2022-08-21T01:09:09;1.13;;;0.63;;
70305;SDS011;57714;51.698;5.344;2022-08-21T01:11:34;0.90;;;0.60;;
70305;SDS011;57714;51.698;5.344;2022-08-21T01:14:00;1.30;;;0.88;;
70305;SDS011;57714;51.698;5.344;2022-08-21T01:16:26;0.90;;;0.60;;
70305;SDS011;57714;51.698;5.344;2022-08-21T01:18:51;1.00;;;0.60;;
70305;SDS011;57714;51.698;5.344;2022-08-21T01:21:21;0.90;;;0.60;;
70305;SDS011;57714;51.698;5.344;2022-08-21T01:23:48;1.50;;;0.95;;
70305;SDS011;57714;51.698;5.344;2022-08-21T01:26:15;0.90;;;0.50;;
70305;SDS011;57714;51.698;5.344;2022-08-21T01:28:46;0.90;;;0.60;;
70305;SDS011;57714;51.698;5.344;2022-08-21T01:31:14;1.00;;;0.70;;
70305;SDS011;57714;51.698;5.344;2022-08-21T01:33:40;0.80;;;0.50;;
70305;SDS011;57714;51.698;5.344;2022-08-21T01:36:06;1.07;;;0.70;;
70305;SDS011;57714;51.698;5.344;2022-08-21T01:38:32;0.80;;;0.50;;
70305;SDS011;57714;51.698;5.344;2022-08-21T01:40:58;1.20;;;0.68;;
70305;SDS011;57714;51.698;5.344;2022-08-21T01:43:23;1.00;;;0.70;;
70305;SDS011;57714;51.698;5.344;2022-08-21T01:45:49;1.00;;;0.70;;
70305;SDS011;57714;51.698;5.344;2022-08-21T01:48:14;0.90;;;0.60;;
70305;SDS011;57714;51.698;5.344;2022-08-21T01:50:39;0.90;;;0.60;;
70305;SDS011;57714;51.698;5.344;2022-08-21T01:53:05;1.15;;;0.80;;
70305;SDS011;57714;51.698;5.344;2022-08-21T01:55:30;1.00;;;0.70;;
70305;SDS011;57714;51.698;5.344;2022-08-21T01:57:57;1.00;;;0.70;;
70305;SDS011;57714;51.698;5.344;2022-08-21T02:00:24;1.10;;;0.75;;
70305;SDS011;57714;51.698;5.344;2022-08-21T02:02:49;1.03;;;0.70;;
70305;SDS011;57714;51.698;5.344;2022-08-21T02:05:14;0.80;;;0.52;;
70305;SDS011;57714;51.698;5.344;2022-08-21T02:07:41;0.87;;;0.53;;
70305;SDS011;57714;51.698;5.344;2022-08-21T02:10:09;0.90;;;0.60;;
70305;SDS011;57714;51.698;5.344;2022-08-21T02:12:34;0.90;;;0.60;;
70305;SDS011;57714;51.698;5.344;2022-08-21T02:15:00;5.22;;;0.80;;
70305;SDS011;57714;51.698;5.344;2022-08-21T02:17:25;1.03;;;0.70;;
70305;SDS011;57714;51.698;5.344;2022-08-21T02:19:50;1.20;;;0.80;;
70305;SDS011;57714;51.698;5.344;2022-08-21T02:22:16;0.97;;;0.60;;
70305;SDS011;57714;51.698;5.344;2022-08-21T02:24:41;3.40;;;1.13;;
70305;SDS011;57714;51.698;5.344;2022-08-21T02:27:07;1.10;;;0.73;;
70305;SDS011;57714;51.698;5.344;2022-08-21T02:29:32;0.90;;;0.60;;
70305;SDS011;57714;51.698;5.344;2022-08-21T02:31:58;1.10;;;0.73;;
70305;SDS011;57714;51.698;5.344;2022-08-21T02:34:24;0.80;;;0.60;;
70305;SDS011;57714;51.698;5.344;2022-08-21T02:36:49;1.00;;;0.60;;
70305;SDS011;57714;51.698;5.344;2022-08-21T02:39:15;1.52;;;1.00;;
70305;SDS011;57714;51.698;5.344;2022-08-21T02:41:40;1.20;;;0.80;;
70305;SDS011;57714;51.698;5.344;2022-08-21T02:44:05;1.30;;;0.93;;
70305;SDS011;57714;51.698;5.344;2022-08-21T02:46:31;0.67;;;0.40;;
70305;SDS011;57714;51.698;5.344;2022-08-21T02:48:56;1.65;;;1.08;;
70305;SDS011;57714;51.698;5.344;2022-08-21T02:51:22;0.80;;;0.50;;
70305;SDS011;57714;51.698;5.344;2022-08-21T02:53:48;0.93;;;0.60;;
70305;SDS011;57714;51.698;5.344;2022-08-21T02:56:16;1.00;;;0.70;;
70305;SDS011;57714;51.698;5.344;2022-08-21T02:58:43;1.00;;;0.70;;
70305;SDS011;57714;51.698;5.344;2022-08-21T03:01:09;1.33;;;0.98;;
70305;SDS011;57714;51.698;5.344;2022-08-21T03:03:35;0.90;;;0.60;;
70305;SDS011;57714;51.698;5.344;2022-08-21T03:06:00;1.27;;;0.80;;
70305;SDS011;57714;51.698;5.344;2022-08-21T03:08:26;0.90;;;0.60;;
70305;SDS011;57714;51.698;5.344;2022-08-21T03:10:52;1.10;;;0.67;;
70305;SDS011;57714;51.698;5.344;2022-08-21T03:13:18;1.10;;;0.73;;
70305;SDS011;57714;51.698;5.344;2022-08-21T03:15:44;0.98;;;0.60;;
70305;SDS011;57714;51.698;5.344;2022-08-21T03:18:10;1.00;;;0.60;;
70305;SDS011;57714;51.698;5.344;2022-08-21T03:20:36;1.00;;;0.65;;
70305;SDS011;57714;51.698;5.344;2022-08-21T03:23:02;0.95;;;0.65;;
70305;SDS011;57714;51.698;5.344;2022-08-21T03:25:28;1.10;;;0.80;;
70305;SDS011;57714;51.698;5.344;2022-08-21T03:27:57;0.88;;;0.60;;
70305;SDS011;57714;51.698;5.344;2022-08-21T03:30:22;1.20;;;0.73;;
70305;SDS011;57714;51.698;5.344;2022-08-21T03:32:48;0.88;;;0.57;;
70305;SDS011;57714;51.698;5.344;2022-08-21T03:35:13;1.10;;;0.70;;
70305;SDS011;57714;51.698;5.344;2022-08-21T03:37:39;1.60;;;0.90;;
70305;SDS011;57714;51.698;5.344;2022-08-21T03:40:06;1.35;;;0.80;;
70305;SDS011;57714;51.698;5.344;2022-08-21T03:42:32;1.00;;;0.60;;
70305;SDS011;57714;51.698;5.344;2022-08-21T03:44:57;0.70;;;0.47;;
70305;SDS011;57714;51.698;5.344;2022-08-21T03:47:22;1.20;;;0.80;;
70305;SDS011;57714;51.698;5.344;2022-08-21T03:49:48;1.40;;;0.70;;
70305;SDS011;57714;51.698;5.344;2022-08-21T03:52:13;1.10;;;0.73;;
70305;SDS011;57714;51.698;5.344;2022-08-21T03:54:39;1.30;;;0.83;;
70305;SDS011;57714;51.698;5.344;2022-08-21T03:57:07;1.10;;;0.70;;
70305;SDS011;57714;51.698;5.344;2022-08-21T03:59:32;1.10;;;0.70;;
70305;SDS011;57714;51.698;5.344;2022-08-21T04:01:59;1.50;;;1.00;;
70305;SDS011;57714;51.698;5.344;2022-08-21T04:04:25;1.27;;;0.80;;
70305;SDS011;57714;51.698;5.344;2022-08-21T04:06:51;1.10;;;0.80;;
70305;SDS011;57714;51.698;5.344;2022-08-21T04:09:17;0.70;;;0.50;;
70305;SDS011;57714;51.698;5.344;2022-08-21T04:11:43;1.17;;;0.70;;
70305;SDS011;57714;51.698;5.344;2022-08-21T04:14:10;1.17;;;0.80;;
70305;SDS011;57714;51.698;5.344;2022-08-21T04:16:35;1.63;;;0.97;;
70305;SDS011;57714;51.698;5.344;2022-08-21T04:19:01;0.97;;;0.60;;
70305;SDS011;57714;51.698;5.344;2022-08-21T04:21:27;1.38;;;0.70;;
70305;SDS011;57714;51.698;5.344;2022-08-21T04:23:55;0.97;;;0.67;;
70305;SDS011;57714;51.698;5.344;2022-08-21T04:26:21;1.13;;;0.70;;
70305;SDS011;57714;51.698;5.344;2022-08-21T04:28:47;1.23;;;0.70;;
70305;SDS011;57714;51.698;5.344;2022-08-21T04:31:12;1.00;;;0.60;;
70305;SDS011;57714;51.698;5.344;2022-08-21T04:33:38;1.10;;;0.73;;
70305;SDS011;57714;51.698;5.344;2022-08-21T04:36:05;0.93;;;0.63;;
70305;SDS011;57714;51.698;5.344;2022-08-21T04:38:30;0.90;;;0.60;;
70305;SDS011;57714;51.698;5.344;2022-08-21T04:40:57;1.08;;;0.80;;
70305;SDS011;57714;51.698;5.344;2022-08-21T04:43:22;1.33;;;0.90;;
70305;SDS011;57714;51.698;5.344;2022-08-21T04:45:51;1.05;;;0.60;;
70305;SDS011;57714;51.698;5.344;2022-08-21T04:48:18;1.10;;;0.73;;
70305;SDS011;57714;51.698;5.344;2022-08-21T04:50:49;1.27;;;0.90;;
70305;SDS011;57714;51.698;5.344;2022-08-21T04:53:24;2.85;;;1.85;;
70305;SDS011;57714;51.698;5.344;2022-08-21T04:55:51;9.73;;;4.05;;
70305;SDS011;57714;51.698;5.344;2022-08-21T04:58:19;3.15;;;2.78;;
70305;SDS011;57714;51.698;5.344;2022-08-21T05:00:45;4.00;;;3.23;;
70305;SDS011;57714;51.698;5.344;2022-08-21T05:03:11;4.18;;;3.00;;
70305;SDS011;57714;51.698;5.344;2022-08-21T05:05:36;3.33;;;2.43;;
70305;SDS011;57714;51.698;5.344;2022-08-21T05:08:02;3.13;;;2.13;;
70305;SDS011;57714;51.698;5.344;2022-08-21T05:10:28;4.47;;;3.53;;
70305;SDS011;57714;51.698;5.344;2022-08-21T05:12:53;2.30;;;1.80;;
70305;SDS011;57714;51.698;5.344;2022-08-21T05:15:19;3.50;;;2.93;;
70305;SDS011;57714;51.698;5.344;2022-08-21T05:17:45;6.43;;;3.17;;
70305;SDS011;57714;51.698;5.344;2022-08-21T05:20:11;3.57;;;2.70;;
70305;SDS011;57714;51.698;5.344;2022-08-21T05:22:37;16.83;;;3.55;;
70305;SDS011;57714;51.698;5.344;2022-08-21T05:25:04;3.07;;;2.30;;
70305;SDS011;57714;51.698;5.344;2022-08-21T05:27:29;5.53;;;3.65;;
70305;SDS011;57714;51.698;5.344;2022-08-21T05:29:55;6.30;;;3.67;;
70305;SDS011;57714;51.698;5.344;2022-08-21T05:32:21;9.50;;;2.63;;
70305;SDS011;57714;51.698;5.344;2022-08-21T05:34:46;4.93;;;3.47;;
70305;SDS011;57714;51.698;5.344;2022-08-21T05:37:12;4.97;;;3.97;;
70305;SDS011;57714;51.698;5.344;2022-08-21T05:39:37;8.47;;;5.23;;
70305;SDS011;57714;51.698;5.344;2022-08-21T05:42:02;7.77;;;4.80;;
70305;SDS011;57714;51.698;5.344;2022-08-21T05:44:28;10.65;;;6.03;;
70305;SDS011;57714;51.698;5.344;2022-08-21T05:46:53;9.03;;;6.47;;
70305;SDS011;57714;51.698;5.344;2022-08-21T05:49:19;7.73;;;5.97;;
70305;SDS011;57714;51.698;5.344;2022-08-21T05:51:44;8.70;;;5.70;;
70305;SDS011;57714;51.698;5.344;2022-08-21T05:54:09;8.73;;;7.50;;
70305;SDS011;57714;51.698;5.344;2022-08-21T05:56:36;15.48;;;5.45;;
70305;SDS011;57714;51.698;5.344;2022-08-21T05:59:01;4.70;;;4.00;;
70305;SDS011;57714;51.698;5.344;2022-08-21T06:01:27;8.65;;;6.72;;
70305;SDS011;57714;51.698;5.344;2022-08-21T06:03:52;8.07;;;5.10;;
70305;SDS011;57714;51.698;5.344;2022-08-21T06:06:18;5.63;;;4.63;;
70305;SDS011;57714;51.698;5.344;2022-08-21T06:08:43;3.83;;;3.07;;
70305;SDS011;57714;51.698;5.344;2022-08-21T06:11:09;8.67;;;5.10;;
70305;SDS011;57714;51.698;5.344;2022-08-21T06:13:35;5.40;;;3.13;;
70305;SDS011;57714;51.698;5.344;2022-08-21T06:16:08;8.67;;;4.23;;
70305;SDS011;57714;51.698;5.344;2022-08-21T06:18:34;3.90;;;2.92;;
70305;SDS011;57714;51.698;5.344;2022-08-21T06:21:00;3.95;;;3.13;;
70305;SDS011;57714;51.698;5.344;2022-08-21T06:23:25;4.57;;;2.00;;
70305;SDS011;57714;51.698;5.344;2022-08-21T06:25:51;3.07;;;1.80;;
70305;SDS011;57714;51.698;5.344;2022-08-21T06:28:16;2.07;;;1.37;;
70305;SDS011;57714;51.698;5.344;2022-08-21T06:30:41;4.97;;;3.63;;
70305;SDS011;57714;51.698;5.344;2022-08-21T06:33:07;5.87;;;3.53;;
70305;SDS011;57714;51.698;5.344;2022-08-21T06:35:33;2.50;;;1.77;;
70305;SDS011;57714;51.698;5.344;2022-08-21T06:37:59;5.20;;;3.28;;
70305;SDS011;57714;51.698;5.344;2022-08-21T06:40:26;1.77;;;1.40;;
70305;SDS011;57714;51.698;5.344;2022-08-21T06:42:51;1.65;;;1.20;;
70305;SDS011;57714;51.698;5.344;2022-08-21T06:45:17;4.67;;;2.27;;
70305;SDS011;57714;51.698;5.344;2022-08-21T06:47:42;2.53;;;2.07;;
70305;SDS011;57714;51.698;5.344;2022-08-21T06:50:07;1.63;;;1.33;;
70305;SDS011;57714;51.698;5.344;2022-08-21T06:52:36;2.58;;;2.00;;
70305;SDS011;57714;51.698;5.344;2022-08-21T06:55:02;1.80;;;1.27;;
70305;SDS011;57714;51.698;5.344;2022-08-21T06:57:28;2.00;;;1.57;;
70305;SDS011;57714;51.698;5.344;2022-08-21T06:59:54;3.80;;;1.37;;
70305;SDS011;57714;51.698;5.344;2022-08-21T07:02:19;7.18;;;3.25;;
70305;SDS011;57714;51.698;5.344;2022-08-21T07:04:45;3.03;;;0.97;;
70305;SDS011;57714;51.698;5.344;2022-08-21T07:07:10;2.27;;;1.63;;
70305;SDS011;57714;51.698;5.344;2022-08-21T07:09:36;6.07;;;2.23;;
70305;SDS011;57714;51.698;5.344;2022-08-21T07:12:01;2.40;;;1.30;;
70305;SDS011;57714;51.698;5.344;2022-08-21T07:14:27;1.85;;;1.00;;
70305;SDS011;57714;51.698;5.344;2022-08-21T07:16:52;2.17;;;1.43;;
70305;SDS011;57714;51.698;5.344;2022-08-21T07:19:18;1.55;;;1.02;;
70305;SDS011;57714;51.698;5.344;2022-08-21T07:21:43;1.43;;;1.10;;
70305;SDS011;57714;51.698;5.344;2022-08-21T07:24:09;0.90;;;0.60;;
70305;SDS011;57714;51.698;5.344;2022-08-21T07:26:35;1.98;;;1.58;;
70305;SDS011;57714;51.698;5.344;2022-08-21T07:29:01;2.07;;;1.87;;
70305;SDS011;57714;51.698;5.344;2022-08-21T07:31:27;2.75;;;1.50;;
70305;SDS011;57714;51.698;5.344;2022-08-21T07:33:52;1.77;;;1.37;;
70305;SDS011;57714;51.698;5.344;2022-08-21T07:36:18;1.88;;;1.35;;
70305;SDS011;57714;51.698;5.344;2022-08-21T07:38:43;1.47;;;0.93;;
70305;SDS011;57714;51.698;5.344;2022-08-21T07:41:13;1.60;;;0.82;;
70305;SDS011;57714;51.698;5.344;2022-08-21T07:43:39;2.22;;;1.60;;
70305;SDS011;57714;51.698;5.344;2022-08-21T07:46:04;1.13;;;0.80;;
70305;SDS011;57714;51.698;5.344;2022-08-21T07:48:30;1.07;;;0.70;;
70305;SDS011;57714;51.698;5.344;2022-08-21T07:50:55;1.23;;;0.83;;
70305;SDS011;57714;51.698;5.344;2022-08-21T07:53:21;1.67;;;1.10;;
70305;SDS011;57714;51.698;5.344;2022-08-21T07:55:46;1.00;;;0.70;;
70305;SDS011;57714;51.698;5.344;2022-08-21T07:58:12;1.23;;;0.73;;
70305;SDS011;57714;51.698;5.344;2022-08-21T08:00:37;1.40;;;1.00;;
70305;SDS011;57714;51.698;5.344;2022-08-21T08:03:04;1.10;;;0.80;;
70305;SDS011;57714;51.698;5.344;2022-08-21T08:05:29;2.03;;;1.15;;
70305;SDS011;57714;51.698;5.344;2022-08-21T08:07:58;0.90;;;0.50;;
70305;SDS011;57714;51.698;5.344;2022-08-21T08:10:23;1.37;;;1.10;;
70305;SDS011;57714;51.698;5.344;2022-08-21T08:12:49;1.70;;;1.27;;
70305;SDS011;57714;51.698;5.344;2022-08-21T08:15:17;1.73;;;1.17;;
70305;SDS011;57714;51.698;5.344;2022-08-21T08:17:43;2.05;;;1.25;;
70305;SDS011;57714;51.698;5.344;2022-08-21T08:20:09;1.02;;;0.65;;
70305;SDS011;57714;51.698;5.344;2022-08-21T08:22:36;3.67;;;1.10;;
70305;SDS011;57714;51.698;5.344;2022-08-21T08:25:02;5.47;;;1.70;;
70305;SDS011;57714;51.698;5.344;2022-08-21T08:27:27;1.88;;;1.55;;
70305;SDS011;57714;51.698;5.344;2022-08-21T08:29:53;8.63;;;0.83;;
70305;SDS011;57714;51.698;5.344;2022-08-21T08:32:19;1.40;;;1.03;;
70305;SDS011;57714;51.698;5.344;2022-08-21T08:34:44;0.90;;;0.60;;
70305;SDS011;57714;51.698;5.344;2022-08-21T08:37:12;4.00;;;1.75;;
70305;SDS011;57714;51.698;5.344;2022-08-21T08:39:38;1.00;;;0.68;;
70305;SDS011;57714;51.698;5.344;2022-08-21T08:42:05;1.30;;;0.90;;
70305;SDS011;57714;51.698;5.344;2022-08-21T08:44:31;0.90;;;0.60;;
70305;SDS011;57714;51.698;5.344;2022-08-21T08:46:58;1.30;;;0.70;;
70305;SDS011;57714;51.698;5.344;2022-08-21T08:49:27;1.35;;;0.90;;
70305;SDS011;57714;51.698;5.344;2022-08-21T08:51:57;1.10;;;0.70;;
70305;SDS011;57714;51.698;5.344;2022-08-21T08:54:31;0.90;;;0.60;;
70305;SDS011;57714;51.698;5.344;2022-08-21T08:56:58;1.23;;;0.98;;
70305;SDS011;57714;51.698;5.344;2022-08-21T08:59:26;1.00;;;0.60;;
70305;SDS011;57714;51.698;5.344;2022-08-21T09:01:52;0.80;;;0.50;;
70305;SDS011;57714;51.698;5.344;2022-08-21T09:04:20;1.00;;;0.63;;
70305;SDS011;57714;51.698;5.344;2022-08-21T09:07:25;1.63;;;0.80;;
70305;SDS011;57714;51.698;5.344;2022-08-21T09:12:17;1.27;;;0.90;;
70305;SDS011;57714;51.698;5.344;2022-08-21T09:14:58;0.95;;;0.70;;
70305;SDS011;57714;51.698;5.344;2022-08-21T09:25:24;0.90;;;0.50;;
70305;SDS011;57714;51.698;5.344;2022-08-21T09:27:50;0.90;;;0.50;;
70305;SDS011;57714;51.698;5.344;2022-08-21T09:30:16;1.00;;;0.67;;
70305;SDS011;57714;51.698;5.344;2022-08-21T09:32:42;0.90;;;0.60;;
70305;SDS011;57714;51.698;5.344;2022-08-21T09:37:57;1.00;;;0.60;;
70305;SDS011;57714;51.698;5.344;2022-08-21T09:40:29;0.90;;;0.60;;
70305;SDS011;57714;51.698;5.344;2022-08-21T09:43:00;1.10;;;0.70;;
70305;SDS011;57714;51.698;5.344;2022-08-21T09:45:26;0.90;;;0.60;;
70305;SDS011;57714;51.698;5.344;2022-08-21T09:47:52;1.00;;;0.63;;
70305;SDS011;57714;51.698;5.344;2022-08-21T09:50:20;1.15;;;0.77;;
70305;SDS011;57714;51.698;5.344;2022-08-21T09:52:52;2.35;;;1.98;;
70305;SDS011;57714;51.698;5.344;2022-08-21T09:55:24;1.10;;;0.73;;
70305;SDS011;57714;51.698;5.344;2022-08-21T09:58:11;1.30;;;0.70;;
70305;SDS011;57714;51.698;5.344;2022-08-21T10:00:37;1.00;;;0.60;;
70305;SDS011;57714;51.698;5.344;2022-08-21T10:03:10;0.80;;;0.50;;
70305;SDS011;57714;51.698;5.344;2022-08-21T10:05:36;1.00;;;0.70;;
70305;SDS011;57714;51.698;5.344;2022-08-21T10:08:02;1.15;;;0.77;;
70305;SDS011;57714;51.698;5.344;2022-08-21T10:10:30;1.10;;;0.70;;
70305;SDS011;57714;51.698;5.344;2022-08-21T10:13:02;0.90;;;0.57;;
70305;SDS011;57714;51.698;5.344;2022-08-21T10:18:28;0.90;;;0.60;;
70305;SDS011;57714;51.698;5.344;2022-08-21T10:21:01;1.00;;;0.68;;
70305;SDS011;57714;51.698;5.344;2022-08-21T10:26:25;0.90;;;0.60;;
70305;SDS011;57714;51.698;5.344;2022-08-21T10:29:00;1.10;;;0.80;;
70305;SDS011;57714;51.698;5.344;2022-08-21T10:31:37;0.95;;;0.60;;
70305;SDS011;57714;51.698;5.344;2022-08-21T10:34:09;1.10;;;0.60;;
70305;SDS011;57714;51.698;5.344;2022-08-21T10:36:46;0.98;;;0.68;;
70305;SDS011;57714;51.698;5.344;2022-08-21T10:49:16;1.00;;;0.60;;
70305;SDS011;57714;51.698;5.344;2022-08-21T10:56:55;1.00;;;0.70;;
70305;SDS011;57714;51.698;5.344;2022-08-21T11:01:50;1.10;;;0.70;;
70305;SDS011;57714;51.698;5.344;2022-08-21T11:04:24;0.87;;;0.57;;
70305;SDS011;57714;51.698;5.344;2022-08-21T11:06:52;1.00;;;0.70;;
70305;SDS011;57714;51.698;5.344;2022-08-21T11:09:20;1.05;;;0.68;;
70305;SDS011;57714;51.698;5.344;2022-08-21T11:14:22;0.80;;;0.50;;
70305;SDS011;57714;51.698;5.344;2022-08-21T11:17:00;0.80;;;0.50;;
70305;SDS011;57714;51.698;5.344;2022-08-21T11:19:36;0.93;;;0.60;;
70305;SDS011;57714;51.698;5.344;2022-08-21T11:22:07;0.90;;;0.60;;
70305;SDS011;57714;51.698;5.344;2022-08-21T11:24:44;1.00;;;0.70;;
70305;SDS011;57714;51.698;5.344;2022-08-21T11:27:17;0.90;;;0.60;;
70305;SDS011;57714;51.698;5.344;2022-08-21T11:29:44;1.80;;;0.90;;
70305;SDS011;57714;51.698;5.344;2022-08-21T11:32:53;1.20;;;0.88;;
70305;SDS011;57714;51.698;5.344;2022-08-21T11:35:03;1.35;;;1.15;;
70305;SDS011;57714;51.698;5.344;2022-08-21T11:40:10;0.82;;;0.52;;
70305;SDS011;57714;51.698;5.344;2022-08-21T11:42:44;1.10;;;0.70;;
70305;SDS011;57714;51.698;5.344;2022-08-21T11:45:18;0.90;;;0.50;;
70305;SDS011;57714;51.698;5.344;2022-08-21T11:47:52;0.90;;;0.60;;
70305;SDS011;57714;51.698;5.344;2022-08-21T11:50:30;1.00;;;0.50;;
70305;SDS011;57714;51.698;5.344;2022-08-21T11:52:58;3.00;;;1.15;;
70305;SDS011;57714;51.698;5.344;2022-08-21T12:02:52;0.88;;;0.57;;
70305;SDS011;57714;51.698;5.344;2022-08-21T12:06:27;0.90;;;0.60;;
70305;SDS011;57714;51.698;5.344;2022-08-21T12:08:14;0.90;;;0.60;;
70305;SDS011;57714;51.698;5.344;2022-08-21T12:13:36;0.97;;;0.60;;
70305;SDS011;57714;51.698;5.344;2022-08-21T12:16:06;1.83;;;1.40;;
70305;SDS011;57714;51.698;5.344;2022-08-21T12:18:32;1.10;;;0.80;;
70305;SDS011;57714;51.698;5.344;2022-08-21T12:24:15;1.00;;;0.70;;
70305;SDS011;57714;51.698;5.344;2022-08-21T12:26:47;0.90;;;0.60;;
70305;SDS011;57714;51.698;5.344;2022-08-21T12:29:16;0.90;;;0.50;;
70305;SDS011;57714;51.698;5.344;2022-08-21T12:31:52;1.58;;;0.70;;
70305;SDS011;57714;51.698;5.344;2022-08-21T12:34:18;1.77;;;1.10;;
70305;SDS011;57714;51.698;5.344;2022-08-21T12:36:46;0.80;;;0.50;;
70305;SDS011;57714;51.698;5.344;2022-08-21T12:39:15;0.73;;;0.50;;
70305;SDS011;57714;51.698;5.344;2022-08-21T12:42:29;0.80;;;0.60;;
70305;SDS011;57714;51.698;5.344;2022-08-21T12:44:35;1.10;;;0.70;;
70305;SDS011;57714;51.698;5.344;2022-08-21T12:47:04;1.13;;;0.65;;
70305;SDS011;57714;51.698;5.344;2022-08-21T12:49:31;0.90;;;0.50;;
70305;SDS011;57714;51.698;5.344;2022-08-21T12:52:05;0.97;;;0.63;;
70305;SDS011;57714;51.698;5.344;2022-08-21T12:54:39;0.90;;;0.60;;
70305;SDS011;57714;51.698;5.344;2022-08-21T12:57:05;1.17;;;0.75;;
70305;SDS011;57714;51.698;5.344;2022-08-21T12:59:31;0.98;;;0.60;;
70305;SDS011;57714;51.698;5.344;2022-08-21T13:01:58;0.70;;;0.43;;
70305;SDS011;57714;51.698;5.344;2022-08-21T13:04:42;1.10;;;0.80;;
70305;SDS011;57714;51.698;5.344;2022-08-21T13:07:09;1.48;;;0.90;;
70305;SDS011;57714;51.698;5.344;2022-08-21T13:09:36;0.95;;;0.60;;
70305;SDS011;57714;51.698;5.344;2022-08-21T13:12:07;0.90;;;0.60;;
70305;SDS011;57714;51.698;5.344;2022-08-21T13:14:35;0.90;;;0.57;;
70305;SDS011;57714;51.698;5.344;2022-08-21T13:17:02;0.90;;;0.60;;
70305;SDS011;57714;51.698;5.344;2022-08-21T13:19:28;0.90;;;0.60;;
70305;SDS011;57714;51.698;5.344;2022-08-21T13:21:55;0.80;;;0.50;;
70305;SDS011;57714;51.698;5.344;2022-08-21T13:24:24;0.87;;;0.57;;
70305;SDS011;57714;51.698;5.344;2022-08-21T13:26:51;1.35;;;0.77;;
70305;SDS011;57714;51.698;5.344;2022-08-21T13:29:18;0.80;;;0.50;;
70305;SDS011;57714;51.698;5.344;2022-08-21T13:31:51;1.00;;;0.68;;
70305;SDS011;57714;51.698;5.344;2022-08-21T13:34:19;2.75;;;1.15;;
70305;SDS011;57714;51.698;5.344;2022-08-21T13:36:45;0.73;;;0.43;;
70305;SDS011;57714;51.698;5.344;2022-08-21T13:39:12;1.10;;;0.70;;
70305;SDS011;57714;51.698;5.344;2022-08-21T13:41:44;7.53;;;1.02;;
70305;SDS011;57714;51.698;5.344;2022-08-21T13:44:21;33.65;;;1.25;;
70305;SDS011;57714;51.698;5.344;2022-08-21T13:46:51;0.82;;;0.52;;
70305;SDS011;57714;51.698;5.344;2022-08-21T13:49:18;0.80;;;0.50;;
70305;SDS011;57714;51.698;5.344;2022-08-21T13:51:44;1.20;;;0.90;;
70305;SDS011;57714;51.698;5.344;2022-08-21T13:56:56;1.10;;;0.80;;
70305;SDS011;57714;51.698;5.344;2022-08-21T13:59:31;0.90;;;0.60;;
70305;SDS011;57714;51.698;5.344;2022-08-21T14:02:01;1.00;;;0.70;;
70305;SDS011;57714;51.698;5.344;2022-08-21T14:04:35;0.80;;;0.55;;
70305;SDS011;57714;51.698;5.344;2022-08-21T14:07:01;0.80;;;0.50;;
70305;SDS011;57714;51.698;5.344;2022-08-21T14:09:34;0.73;;;0.50;;
70305;SDS011;57714;51.698;5.344;2022-08-21T14:12:02;0.90;;;0.60;;
70305;SDS011;57714;51.698;5.344;2022-08-21T14:14:37;0.90;;;0.50;;
70305;SDS011;57714;51.698;5.344;2022-08-21T14:17:05;0.80;;;0.50;;
70305;SDS011;57714;51.698;5.344;2022-08-21T14:25:01;0.90;;;0.60;;
70305;SDS011;57714;51.698;5.344;2022-08-21T14:27:28;1.35;;;0.95;;
70305;SDS011;57714;51.698;5.344;2022-08-21T14:29:57;5.68;;;1.00;;
70305;SDS011;57714;51.698;5.344;2022-08-21T14:32:23;1.00;;;0.70;;
70305;SDS011;57714;51.698;5.344;2022-08-21T14:34:51;1.08;;;0.70;;
70305;SDS011;57714;51.698;5.344;2022-08-21T14:37:18;0.80;;;0.50;;
70305;SDS011;57714;51.698;5.344;2022-08-21T14:39:44;0.80;;;0.50;;
70305;SDS011;57714;51.698;5.344;2022-08-21T14:42:10;1.30;;;1.00;;
70305;SDS011;57714;51.698;5.344;2022-08-21T14:44:40;1.60;;;1.07;;
70305;SDS011;57714;51.698;5.344;2022-08-21T14:47:15;1.02;;;0.70;;
70305;SDS011;57714;51.698;5.344;2022-08-21T14:49:41;0.90;;;0.70;;
70305;SDS011;57714;51.698;5.344;2022-08-21T14:52:08;1.00;;;0.60;;
70305;SDS011;57714;51.698;5.344;2022-08-21T14:54:34;2.75;;;1.25;;
70305;SDS011;57714;51.698;5.344;2022-08-21T14:57:09;0.90;;;0.60;;
70305;SDS011;57714;51.698;5.344;2022-08-21T14:59:37;1.03;;;0.70;;
70305;SDS011;57714;51.698;5.344;2022-08-21T15:02:04;1.17;;;0.70;;
70305;SDS011;57714;51.698;5.344;2022-08-21T15:04:30;0.95;;;0.63;;
70305;SDS011;57714;51.698;5.344;2022-08-21T15:06:55;0.80;;;0.50;;
70305;SDS011;57714;51.698;5.344;2022-08-21T15:09:20;4.30;;;0.70;;
70305;SDS011;57714;51.698;5.344;2022-08-21T15:11:46;0.80;;;0.50;;
70305;SDS011;57714;51.698;5.344;2022-08-21T15:14:14;0.90;;;0.53;;
70305;SDS011;57714;51.698;5.344;2022-08-21T15:16:41;0.90;;;0.53;;
70305;SDS011;57714;51.698;5.344;2022-08-21T15:19:07;1.00;;;0.60;;
70305;SDS011;57714;51.698;5.344;2022-08-21T15:21:32;1.87;;;1.10;;
70305;SDS011;57714;51.698;5.344;2022-08-21T15:23:58;1.15;;;0.75;;
70305;SDS011;57714;51.698;5.344;2022-08-21T15:26:23;14.40;;;2.27;;
70305;SDS011;57714;51.698;5.344;2022-08-21T15:28:48;1.43;;;1.00;;
70305;SDS011;57714;51.698;5.344;2022-08-21T15:31:14;1.20;;;0.80;;
70305;SDS011;57714;51.698;5.344;2022-08-21T15:33:39;0.80;;;0.50;;
70305;SDS011;57714;51.698;5.344;2022-08-21T15:36:05;0.90;;;0.60;;
70305;SDS011;57714;51.698;5.344;2022-08-21T15:38:31;1.20;;;0.67;;
70305;SDS011;57714;51.698;5.344;2022-08-21T15:40:56;0.70;;;0.50;;
70305;SDS011;57714;51.698;5.344;2022-08-21T15:43:23;0.83;;;0.50;;
70305;SDS011;57714;51.698;5.344;2022-08-21T15:45:49;1.35;;;0.98;;
70305;SDS011;57714;51.698;5.344;2022-08-21T15:48:15;0.85;;;0.60;;
70305;SDS011;57714;51.698;5.344;2022-08-21T15:50:41;0.80;;;0.50;;
70305;SDS011;57714;51.698;5.344;2022-08-21T15:53:07;5.90;;;1.67;;